St David — 2BHL9 — position and weather

sailwx.info

Track history (hours):
 
Tides and Currents Weather Stations Pressure Air Temp Water Temp Dewpoint Dewpoint Depression Visibility Wind Speed Wind Dir Waves Ship Positions

St David

Last reported at 2015-Jul-02 16:33 UTC. Time now 2015-Jul-03 07:51 UTC.
Position N 43°33' E 007°02'.

Length 60 m; draft 3.4 m.

Type: Pleasure craft. MMSI: 235066164.

Date/timePositionNaut miles runAvg speedWind from/ knotsBaromVisibWave heightAir tempDewpointWater temp
2015-Jul-02 16:33N 43°33' E 007°02'6 6.1
2015-Jul-02 15:33N 43°32' E 007°10'1212.0
2015-Jul-02 14:33N 43°42' E 007°21'0 0.1
2015-Jul-02 11:09N 43°42' E 007°20'  
2015-Jun-28 10:12N 43°35' E 007°54'913.7
2015-Jun-28 09:33N 43°32' E 008°05'1513.8
2015-Jun-28 08:30N 43°26' E 008°23'1513.9
2015-Jun-28 07:23N 43°19' E 008°42'1213.9
2015-Jun-28 06:33N 43°14' E 008°57'1413.9
2015-Jun-28 05:33N 43°09' E 009°14'4413.1
2015-Jun-28 02:13N 42°34' E 009°51'19813.4
2015-Jun-27 11:30N 40°49' E 013°35'1313.5
2015-Jun-27 10:33N 40°40' E 013°48'1312.8
2015-Jun-27 09:33N 40°40' E 014°05'  
2015-Jun-23 22:25N 40°50' E 014°13'0 0.0
2015-Jun-23 21:13N 40°50' E 014°13'0 0.0
2015-Jun-23 20:31N 40°50' E 014°13'0 0.0
2015-Jun-23 19:31N 40°50' E 014°13'0 0.0
2015-Jun-23 19:04N 40°50' E 014°13'0 0.0
2015-Jun-22 17:31N 40°50' E 014°13'  
Track history (hours):
 
Tides and Currents Weather Stations Pressure Air Temp Water Temp Dewpoint Dewpoint Depression Visibility Wind Speed Wind Dir Waves Ship Positions

St David

Last reported at 2015-Jul-02 16:33 UTC. Time now 2015-Jul-03 07:51 UTC.
Position N 43°33' E 007°02'.

Length 60 m; draft 3.4 m.

Type: Pleasure craft. MMSI: 235066164.

Date/timePositionNaut miles runAvg speedWind from/ knotsBaromVisibWave heightAir tempDewpointWater temp
2015-Jul-02 16:33N 43°33' E 007°02'6 6.1
2015-Jul-02 15:33N 43°32' E 007°10'1212.0
2015-Jul-02 14:33N 43°42' E 007°21'0 0.1
2015-Jul-02 11:09N 43°42' E 007°20'  
2015-Jun-28 10:12N 43°35' E 007°54'913.7
2015-Jun-28 09:33N 43°32' E 008°05'1513.8
2015-Jun-28 08:30N 43°26' E 008°23'1513.9
2015-Jun-28 07:23N 43°19' E 008°42'1213.9
2015-Jun-28 06:33N 43°14' E 008°57'1413.9
2015-Jun-28 05:33N 43°09' E 009°14'4413.1
2015-Jun-28 02:13N 42°34' E 009°51'19813.4
2015-Jun-27 11:30N 40°49' E 013°35'1313.5
2015-Jun-27 10:33N 40°40' E 013°48'1312.8
2015-Jun-27 09:33N 40°40' E 014°05'  
2015-Jun-23 22:25N 40°50' E 014°13'0 0.0
2015-Jun-23 21:13N 40°50' E 014°13'0 0.0
2015-Jun-23 20:31N 40°50' E 014°13'0 0.0
2015-Jun-23 19:31N 40°50' E 014°13'0 0.0
2015-Jun-23 19:04N 40°50' E 014°13'0 0.0
2015-Jun-22 17:31N 40°50' E 014°13'  

Dump ship's entire track history